createdAt,value
2023-01-11T00:01:16.669Z,92.93
2023-01-11T00:03:51.513Z,92.86
2023-01-11T00:06:18.899Z,92.99
2023-01-11T00:08:52.964Z,92.76
2023-01-11T00:11:28.027Z,92.75
2023-01-11T00:14:01.876Z,92.82
2023-01-11T00:16:44.528Z,93.03
2023-01-11T00:19:17.933Z,93.26
2023-01-11T00:21:50.924Z,93.22
2023-01-11T00:24:17.977Z,93.21
2023-01-11T00:26:53.849Z,93.38
2023-01-11T00:29:20.680Z,93.44
2023-01-11T00:31:58.074Z,93.48
2023-01-11T00:34:34.326Z,93.63
2023-01-11T00:37:01.159Z,93.46
2023-01-11T00:39:35.086Z,93.48
2023-01-11T00:42:20.503Z,93.75
2023-01-11T00:45:11.898Z,93.35
2023-01-11T00:47:57.235Z,93.35
2023-01-11T00:50:36.869Z,93.49
2023-01-11T00:53:10.956Z,93.32
2023-01-11T00:55:38.114Z,93.36
2023-01-11T00:58:10.964Z,93.67
2023-01-11T01:00:45.267Z,93.63
2023-01-11T01:03:18.924Z,93.63
2023-01-11T01:05:53.017Z,93.47
2023-01-11T01:08:19.846Z,93.32
2023-01-11T01:10:54.994Z,93.47
2023-01-11T01:13:40.435Z,93.38
2023-01-11T01:16:22.101Z,93.43
2023-01-11T01:18:48.898Z,93.57
2023-01-11T01:21:26.588Z,93.56
2023-01-11T01:23:54.748Z,93.72
2023-01-11T01:26:29.043Z,93.31
2023-01-11T01:28:56.063Z,93.44
2023-01-11T01:31:30.653Z,93.65
2023-01-11T01:33:58.119Z,93.24
2023-01-11T01:36:32.491Z,93.51
2023-01-11T01:39:00.790Z,93.48
2023-01-11T01:41:29.394Z,93.77
2023-01-11T01:44:06.019Z,93.62
2023-01-11T01:46:34.588Z,93.48
2023-01-11T01:49:16.152Z,93.46
2023-01-11T01:52:01.962Z,93.73
2023-01-11T01:54:43.433Z,93.47
2023-01-11T01:57:20.396Z,93.84
2023-01-11T01:59:58.963Z,93.77
2023-01-11T02:02:26.505Z,93.47
2023-01-11T02:05:02.925Z,93.95
2023-01-11T02:07:39.952Z,94.01
2023-01-11T02:10:17.058Z,93.74
2023-01-11T02:12:51.997Z,94.31
2023-01-11T02:15:35.062Z,94.30
2023-01-11T02:18:02.118Z,94.11
2023-01-11T02:20:59.980Z,94.15
2023-01-11T02:23:40.329Z,94.48
2023-01-11T02:26:31.024Z,94.16
2023-01-11T02:29:21.037Z,94.34
2023-01-11T02:32:03.631Z,94.53
2023-01-11T02:34:50.027Z,94.49
2023-01-11T02:37:16.958Z,94.51
2023-01-11T02:40:20.074Z,94.26
2023-01-11T02:43:17.968Z,94.41
2023-01-11T02:46:30.110Z,94.34
2023-01-11T02:49:31.068Z,94.49
2023-01-11T02:52:10.938Z,94.41
2023-01-11T02:54:46.945Z,94.71
2023-01-11T02:57:22.019Z,94.24
2023-01-11T02:59:56.957Z,94.61
2023-01-11T03:02:24.430Z,94.57
2023-01-11T03:04:58.019Z,94.57
2023-01-11T03:07:46.561Z,94.56
2023-01-11T03:10:44.936Z,94.36
2023-01-11T03:13:40.601Z,94.67
2023-01-11T03:16:58.277Z,94.84
2023-01-11T03:19:36.684Z,94.51
2023-01-11T03:22:43.041Z,94.52
2023-01-11T03:25:16.091Z,94.68
2023-01-11T03:28:15.147Z,94.66
2023-01-11T03:31:07.872Z,94.77
2023-01-11T03:33:49.093Z,94.52
2023-01-11T03:36:41.056Z,94.79
2023-01-11T03:39:24.988Z,94.82
2023-01-11T03:41:57.450Z,95.12
2023-01-11T03:44:33.954Z,94.78
2023-01-11T03:47:11.289Z,94.78
2023-01-11T03:49:50.003Z,95.03
2023-01-11T03:52:20.603Z,94.81
2023-01-11T03:54:54.055Z,95.11
2023-01-11T03:57:29.691Z,94.94
2023-01-11T04:00:02.979Z,95.11
2023-01-11T04:02:36.390Z,95.21
2023-01-11T04:05:11.155Z,95.17
2023-01-11T04:07:38.460Z,95.04
2023-01-11T04:10:27.047Z,94.80
2023-01-11T04:13:04.035Z,94.89
2023-01-11T04:15:39.129Z,95.03
2023-01-11T04:18:20.072Z,94.82
2023-01-11T04:20:53.144Z,95.10
2023-01-11T04:23:20.598Z,94.72
2023-01-11T04:25:49.135Z,94.86
2023-01-11T04:28:23.080Z,94.94
2023-01-11T04:30:54.836Z,95.01
2023-01-11T04:33:28.015Z,94.89
2023-01-11T04:36:04.801Z,95.05
2023-01-11T04:38:38.009Z,94.73
2023-01-11T04:41:25.059Z,94.83
2023-01-11T04:44:02.103Z,94.70
2023-01-11T04:46:37.266Z,95.04
2023-01-11T04:49:11.141Z,94.95
2023-01-11T04:51:39.555Z,94.93
2023-01-11T04:54:13.012Z,94.95
2023-01-11T04:56:49.098Z,95.09
2023-01-11T04:59:23.059Z,94.86
2023-01-11T05:01:49.792Z,95.16
2023-01-11T05:04:23.166Z,95.02
2023-01-11T05:06:49.922Z,95.07
2023-01-11T05:09:25.076Z,95.23
2023-01-11T05:11:58.105Z,95.03
2023-01-11T05:14:25.125Z,95.06
2023-01-11T05:17:06.032Z,95.35
2023-01-11T05:19:39.073Z,95.19
2023-01-11T05:22:12.123Z,95.04
2023-01-11T05:24:39.150Z,95.26
2023-01-11T05:27:13.098Z,95.28
2023-01-11T05:29:46.031Z,95.38
2023-01-11T05:32:39.044Z,95.40
2023-01-11T05:35:06.060Z,95.41
2023-01-11T05:37:39.082Z,95.38
2023-01-11T05:40:07.217Z,95.56
2023-01-11T05:42:40.103Z,95.17
2023-01-11T05:45:32.244Z,95.32
2023-01-11T05:48:13.129Z,95.21
2023-01-11T05:50:46.328Z,95.02
2023-01-11T05:53:13.174Z,95.02
2023-01-11T05:55:46.077Z,94.95
2023-01-11T05:58:13.111Z,95.25
2023-01-11T06:00:45.980Z,94.98
2023-01-11T06:03:14.365Z,95.54
2023-01-11T06:05:48.061Z,95.48
2023-01-11T06:08:15.488Z,95.49
2023-01-11T06:10:50.036Z,95.55
2023-01-11T06:13:26.687Z,95.45
2023-01-11T06:16:16.138Z,95.50
2023-01-11T06:18:59.376Z,95.34
2023-01-11T06:21:34.156Z,95.30
2023-01-11T06:24:01.194Z,95.27
2023-01-11T06:26:37.264Z,95.46
2023-01-11T06:29:11.184Z,95.18
2023-01-11T06:31:46.916Z,95.33
2023-01-11T06:34:21.138Z,95.62
2023-01-11T06:36:55.205Z,95.25
2023-01-11T06:39:28.102Z,95.26
2023-01-11T06:41:59.260Z,95.31
2023-01-11T06:44:32.178Z,95.43
2023-01-11T06:46:59.165Z,95.31
2023-01-11T06:49:32.220Z,95.13
2023-01-11T06:51:59.132Z,95.40
2023-01-11T06:54:32.267Z,95.15
2023-01-11T06:56:58.983Z,95.37
2023-01-11T06:59:25.825Z,95.30
2023-01-11T07:01:59.367Z,95.25
2023-01-11T07:04:27.182Z,95.29
2023-01-11T07:07:03.154Z,95.32
2023-01-11T07:09:29.955Z,95.12
2023-01-11T07:12:07.111Z,95.39
2023-01-11T07:14:34.322Z,95.23
2023-01-11T07:17:14.119Z,95.39
2023-01-11T07:19:40.838Z,95.39
2023-01-11T07:22:16.755Z,95.26
2023-01-11T07:24:43.888Z,95.34
2023-01-11T07:27:17.124Z,95.19
2023-01-11T07:29:50.145Z,94.99
2023-01-11T07:32:16.888Z,95.30
2023-01-11T07:34:50.273Z,94.92
2023-01-11T07:37:28.909Z,95.03
2023-01-11T07:40:03.050Z,95.25
2023-01-11T07:42:48.557Z,95.10
2023-01-11T07:45:22.164Z,95.09
2023-01-11T07:47:54.941Z,95.12
2023-01-11T07:50:28.125Z,95.07
2023-01-11T07:53:11.747Z,95.27
2023-01-11T07:55:40.091Z,95.09
2023-01-11T07:58:15.190Z,95.20
2023-01-11T08:00:48.287Z,95.24
2023-01-11T08:03:15.040Z,94.91
2023-01-11T08:05:48.103Z,94.83
2023-01-11T08:08:22.314Z,94.91
2023-01-11T08:11:13.413Z,95.00
2023-01-11T08:14:05.132Z,94.91
2023-01-11T08:16:47.252Z,94.97
2023-01-11T08:19:20.335Z,94.94
2023-01-11T08:21:51.662Z,94.68
2023-01-11T08:24:25.126Z,94.71
2023-01-11T08:26:53.285Z,94.96
2023-01-11T08:29:27.249Z,94.96
2023-01-11T08:31:54.213Z,94.96
2023-01-11T08:34:21.156Z,95.03
2023-01-11T08:36:58.135Z,94.85
2023-01-11T08:39:25.628Z,94.65
2023-01-11T08:41:59.815Z,94.84
2023-01-11T08:44:34.474Z,94.79
2023-01-11T08:47:09.148Z,94.58
2023-01-11T08:49:35.848Z,94.62
2023-01-11T08:52:09.076Z,94.25
2023-01-11T08:54:35.893Z,94.39
2023-01-11T08:57:09.238Z,94.23
2023-01-11T08:59:42.188Z,94.32
2023-01-11T09:02:16.197Z,94.37
2023-01-11T09:04:43.004Z,94.09
2023-01-11T09:07:16.322Z,94.06
2023-01-11T09:09:43.006Z,93.88
2023-01-11T09:12:16.392Z,94.11
2023-01-11T09:14:43.311Z,93.79
2023-01-11T09:17:23.357Z,93.48
2023-01-11T09:20:06.199Z,93.57
2023-01-11T09:22:34.258Z,92.96
2023-01-11T09:25:07.190Z,92.63
2023-01-11T09:27:40.336Z,92.48
2023-01-11T09:30:14.241Z,92.11
2023-01-11T09:32:41.533Z,92.07
2023-01-11T09:35:15.361Z,91.97
2023-01-11T09:37:52.234Z,92.00
2023-01-11T09:40:29.205Z,91.94
2023-01-11T09:43:01.026Z,92.06
2023-01-11T09:45:37.229Z,91.73
2023-01-11T09:48:26.884Z,91.10
2023-01-11T09:51:05.486Z,90.94
2023-01-11T09:53:45.258Z,90.84
2023-01-11T09:56:35.730Z,90.59
2023-01-11T09:59:16.256Z,89.90
2023-01-11T10:02:10.403Z,90.13
2023-01-11T10:05:03.356Z,89.21
2023-01-11T10:18:26.398Z,89.73
2023-01-11T10:18:29.957Z,89.61
2023-01-11T10:20:41.387Z,90.12
2023-01-11T10:23:23.191Z,90.57
2023-01-11T10:25:56.933Z,90.24
2023-01-11T10:28:46.237Z,90.27
2023-01-11T10:31:58.499Z,89.81
2023-01-11T10:34:31.331Z,89.99
2023-01-11T10:37:34.267Z,89.85
2023-01-11T10:40:34.285Z,89.56
2023-01-11T10:43:16.377Z,90.06
2023-01-11T10:46:00.063Z,89.24
2023-01-11T10:48:41.320Z,88.69
2023-01-11T10:51:40.275Z,88.25
2023-01-11T10:54:16.868Z,88.33
2023-01-11T10:57:02.987Z,88.77
2023-01-11T11:00:03.294Z,88.64
2023-01-11T11:02:58.201Z,88.39
2023-01-11T11:05:55.334Z,87.71
2023-01-11T11:08:41.204Z,87.22
2023-01-11T11:11:21.967Z,87.05
2023-01-11T11:14:09.280Z,87.18
2023-01-11T11:17:06.945Z,87.15
2023-01-11T11:19:41.824Z,86.86
2023-01-11T11:22:21.535Z,85.74
2023-01-11T11:25:04.789Z,86.39
2023-01-11T11:27:41.322Z,85.52
2023-01-11T11:30:11.952Z,85.99
2023-01-11T11:32:49.213Z,85.25
2023-01-11T11:35:41.069Z,86.02
2023-01-11T11:38:28.266Z,85.65
2023-01-11T11:41:06.807Z,85.18
2023-01-11T11:43:35.848Z,84.56
2023-01-11T11:46:21.071Z,84.49
2023-01-11T11:49:27.272Z,84.93
2023-01-11T11:51:54.596Z,84.33
2023-01-11T11:54:39.425Z,84.70
2023-01-11T11:57:28.663Z,85.03
2023-01-11T12:00:16.396Z,84.45
2023-01-11T12:02:55.586Z,82.55
2023-01-11T12:05:29.502Z,81.17
2023-01-11T12:08:12.425Z,81.08
2023-01-11T12:11:17.517Z,80.88
2023-01-11T12:13:57.737Z,79.77
2023-01-11T12:16:38.701Z,79.51
2023-01-11T12:19:33.465Z,78.68
2023-01-11T12:22:34.341Z,78.99
2023-01-11T12:25:28.911Z,78.42
2023-01-11T12:28:15.284Z,78.24
2023-01-11T12:31:14.492Z,77.49
2023-01-11T12:33:54.998Z,77.39
2023-01-11T12:37:02.328Z,75.81
2023-01-11T12:39:35.221Z,75.04
2023-01-11T12:42:23.285Z,74.77
2023-01-11T12:45:14.901Z,74.17
2023-01-11T12:48:26.454Z,74.48
2023-01-11T12:51:32.034Z,75.65
2023-01-11T12:54:37.243Z,75.47
2023-01-11T12:57:10.279Z,75.37
2023-01-11T12:59:59.324Z,76.05
2023-01-11T13:02:48.246Z,75.80
2023-01-11T13:05:32.283Z,75.37
2023-01-11T13:08:31.268Z,75.91
2023-01-11T13:11:18.400Z,76.10
2023-01-11T13:13:56.977Z,75.65
2023-01-11T13:17:22.499Z,76.64
2023-01-11T13:20:26.384Z,74.14
2023-01-11T13:23:06.391Z,72.95
2023-01-11T13:25:38.923Z,74.10
2023-01-11T13:28:39.386Z,74.18
2023-01-11T13:31:14.238Z,74.02
2023-01-11T13:33:54.338Z,74.55
2023-01-11T13:36:43.472Z,75.17
2023-01-11T13:39:21.595Z,75.01
2023-01-11T13:42:01.852Z,75.96
2023-01-11T13:44:37.116Z,75.74
2023-01-11T13:47:18.435Z,74.05
2023-01-11T13:50:01.448Z,73.80
2023-01-11T13:52:58.416Z,73.14
2023-01-11T13:55:26.446Z,73.53
2023-01-11T13:58:21.334Z,74.05
2023-01-11T14:00:55.572Z,74.67
2023-01-11T14:03:49.108Z,74.62
2023-01-11T14:06:25.932Z,75.34
2023-01-11T14:09:21.399Z,74.83
2023-01-11T14:12:08.861Z,74.98
2023-01-11T14:14:51.348Z,74.64
2023-01-11T14:17:55.655Z,74.66
2023-01-11T14:20:58.549Z,74.59
2023-01-11T14:23:48.382Z,74.66
2023-01-11T14:26:52.574Z,75.13
2023-01-11T14:29:56.589Z,75.02
2023-01-11T14:32:55.509Z,73.67
2023-01-11T14:36:06.602Z,74.00
2023-01-11T14:38:59.377Z,74.52
2023-01-11T14:41:47.387Z,73.77
2023-01-11T14:44:36.267Z,74.19
2023-01-11T14:47:41.521Z,73.93
2023-01-11T14:50:33.371Z,74.08
2023-01-11T14:53:03.858Z,74.14
2023-01-11T14:55:41.481Z,74.05
2023-01-11T14:58:14.371Z,73.88
2023-01-11T15:00:47.750Z,73.89
2023-01-11T15:03:25.392Z,74.27
2023-01-11T15:05:59.073Z,74.64
2023-01-11T15:22:02.765Z,76.46
2023-01-11T15:24:39.903Z,76.31
2023-01-11T15:27:13.598Z,76.56
2023-01-11T15:29:43.266Z,76.65
2023-01-11T15:32:30.823Z,76.46
2023-01-11T15:35:38.972Z,75.96
2023-01-11T15:38:16.131Z,76.58
2023-01-11T19:32:23.777Z,79.69
2023-01-11T21:05:30.481Z,87.63
2023-01-11T21:08:50.779Z,87.16
2023-01-11T21:32:27.813Z,88.14
2023-01-11T21:55:34.028Z,88.84
2023-01-11T21:58:32.787Z,87.89
2023-01-11T22:17:59.334Z,88.69
2023-01-11T23:10:38.637Z,88.27
2023-01-11T23:13:35.697Z,88.47
2023-01-11T23:16:25.477Z,88.58
2023-01-11T23:19:16.380Z,88.81
2023-01-11T23:24:54.010Z,88.97
2023-01-11T23:27:34.104Z,88.86
2023-01-11T23:30:14.192Z,89.07
2023-01-11T23:32:49.386Z,89.01
2023-01-11T23:35:28.388Z,89.27
2023-01-11T23:47:28.098Z,88.95
2023-01-11T23:50:09.840Z,88.80
2023-01-11T23:59:26.265Z,88.38
